createdAt,value
2022-08-05T00:01:29.175Z,0
2022-08-05T00:02:29.905Z,0
2022-08-05T00:03:31.763Z,0
2022-08-05T00:04:33.681Z,0
2022-08-05T00:06:33.486Z,0
2022-08-05T00:08:01.720Z,0
2022-08-05T00:09:01.864Z,0
2022-08-05T00:10:01.985Z,0
2022-08-05T00:11:02.105Z,0
2022-08-05T00:12:02.319Z,0
2022-08-05T00:13:03.077Z,0
2022-08-05T00:14:17.499Z,0
2022-08-05T00:16:00.582Z,0
2022-08-05T00:17:03.156Z,0
2022-08-05T00:18:03.640Z,0
2022-08-05T00:19:03.760Z,0
2022-08-05T00:20:03.886Z,0
2022-08-05T00:21:08.664Z,0
2022-08-05T00:22:12.016Z,0.54
2022-08-05T00:23:13.467Z,1.29
2022-08-05T00:24:30.820Z,0.7
2022-08-05T00:25:46.474Z,0.87
2022-08-05T00:26:53.307Z,0
2022-08-05T00:27:55.441Z,0
2022-08-05T00:28:55.542Z,0
2022-08-05T00:29:56.470Z,0.14
2022-08-05T00:31:04.792Z,0
2022-08-05T00:32:15.900Z,0.8
2022-08-05T00:35:07.908Z,0
2022-08-05T00:37:20.307Z,1.5
2022-08-05T00:38:34.115Z,1.66
2022-08-05T00:39:58.377Z,1.25
2022-08-05T00:40:59.857Z,0.84
2022-08-05T00:41:59.952Z,1.59
2022-08-05T00:43:00.101Z,2.12
2022-08-05T00:44:00.217Z,0.59
2022-08-05T00:45:00.359Z,2.5
2022-08-05T00:46:00.459Z,2.34
2022-08-05T00:47:06.048Z,2.47
2022-08-05T00:48:07.609Z,2.95
2022-08-05T00:49:14.109Z,0.42
2022-08-05T00:50:15.288Z,1.58
2022-08-05T00:51:53.194Z,2.75
2022-08-05T00:52:56.019Z,4.33
2022-08-05T00:54:03.338Z,3.41
2022-08-05T00:55:03.442Z,4.91
2022-08-05T00:56:03.552Z,3.35
2022-08-05T00:57:03.663Z,3.79
2022-08-05T00:58:04.848Z,2.91
2022-08-05T00:59:07.130Z,4.12
2022-08-05T01:00:13.366Z,3.57
2022-08-05T01:01:13.653Z,5
2022-08-05T01:02:16.728Z,5.54
2022-08-05T01:03:23.591Z,4.75
2022-08-05T01:04:30.255Z,5.37
2022-08-05T01:05:30.370Z,5.25
2022-08-05T01:06:32.995Z,5.33
2022-08-05T01:07:33.110Z,4.12
2022-08-05T01:08:47.534Z,5.35
2022-08-05T01:09:55.923Z,3.11
2022-08-05T01:10:58.104Z,4.56
2022-08-05T01:12:19.197Z,4.09
2022-08-05T01:13:59.690Z,3.84
2022-08-05T01:15:05.369Z,3.3
2022-08-05T01:16:05.543Z,4.2
2022-08-05T01:17:07.469Z,6.54
2022-08-05T01:18:11.613Z,6.2
2022-08-05T01:19:14.523Z,7.66
2022-08-05T01:20:16.534Z,7.54
2022-08-05T01:21:23.246Z,5.75
2022-08-05T01:22:39.743Z,3.93
2022-08-05T01:23:41.520Z,5
2022-08-05T01:24:41.636Z,6.58
2022-08-05T01:25:41.829Z,4.2
2022-08-05T01:26:41.945Z,2.94
2022-08-05T01:27:56.923Z,4.33
2022-08-05T01:29:05.610Z,2.35
2022-08-05T01:30:35.115Z,4.25
2022-08-05T01:31:45.474Z,2.7
2022-08-05T01:32:45.584Z,2.16
2022-08-05T01:33:53.913Z,1.08
2022-08-05T01:34:55.939Z,5.7
2022-08-05T01:35:57.817Z,0.94
2022-08-05T01:37:01.168Z,3.12
2022-08-05T01:38:01.360Z,2.55
2022-08-05T01:39:02.923Z,1.89
2022-08-05T01:40:03.232Z,3.19
2022-08-05T01:41:06.844Z,2.71
2022-08-05T01:42:09.891Z,1.87
2022-08-05T01:43:24.317Z,2.5
2022-08-05T01:44:35.612Z,3.07
2022-08-05T01:45:43.445Z,5.2
2022-08-05T01:46:46.858Z,3.63
2022-08-05T01:47:47.954Z,2.16
2022-08-05T01:48:50.116Z,2.92
2022-08-05T01:50:03.227Z,6.37
2022-08-05T01:51:13.205Z,3
2022-08-05T01:52:19.274Z,4.58
2022-08-05T01:53:59.120Z,3.5
2022-08-05T01:55:05.686Z,3.79
2022-08-05T01:56:09.238Z,3.16
2022-08-05T01:58:45.584Z,4.16
2022-08-05T01:59:47.445Z,3.18
2022-08-05T02:00:47.569Z,3.14
2022-08-05T02:01:49.215Z,3.33
2022-08-05T02:02:55.457Z,2.31
2022-08-05T02:03:57.701Z,3.66
2022-08-05T02:04:57.917Z,2.9
2022-08-05T02:06:36.987Z,2.95
2022-08-05T02:07:38.343Z,3.5
2022-08-05T02:08:59.320Z,2.44
2022-08-05T02:10:00.633Z,3.66
2022-08-05T02:11:00.743Z,1.97
2022-08-05T02:12:00.839Z,3.66
2022-08-05T02:13:01.484Z,2.11
2022-08-05T02:14:01.745Z,4.12
2022-08-05T02:15:03.399Z,2.83
2022-08-05T02:16:03.521Z,1.91
2022-08-05T02:17:04.973Z,2.16
2022-08-05T02:18:35.438Z,2.47
2022-08-05T02:19:47.837Z,2.41
2022-08-05T02:20:49.449Z,1.44
2022-08-05T02:21:49.555Z,1.28
2022-08-05T02:22:49.672Z,1.37
2022-08-05T02:23:49.782Z,1.15
2022-08-05T02:24:52.239Z,1.15
2022-08-05T02:25:52.348Z,1.32
2022-08-05T02:26:55.647Z,0.27
2022-08-05T02:28:00.785Z,0.44
2022-08-05T02:29:04.203Z,0.79
2022-08-05T02:30:04.308Z,1.14
2022-08-05T02:31:04.510Z,0.2
2022-08-05T02:32:05.111Z,1.33
2022-08-05T02:33:06.875Z,0.25
2022-08-05T02:34:10.245Z,0.44
2022-08-05T02:35:19.229Z,0
2022-08-05T02:36:31.921Z,0
2022-08-05T02:37:32.259Z,0
2022-08-05T02:38:35.751Z,0.7
2022-08-05T02:39:47.852Z,0
2022-08-05T02:40:51.838Z,0.64
2022-08-05T02:42:01.767Z,1.54
2022-08-05T02:43:01.896Z,0.87
2022-08-05T02:44:13.690Z,0.38
2022-08-05T02:45:16.412Z,0.38
2022-08-05T02:46:16.641Z,0.38
2022-08-05T02:48:13.009Z,0.16
2022-08-05T02:49:13.956Z,1.05
2022-08-05T02:50:18.334Z,1.5
2022-08-05T02:52:04.787Z,0.8
2022-08-05T02:53:19.523Z,0.14
2022-08-05T02:54:37.743Z,1.29
2022-08-05T02:56:02.436Z,1.91
2022-08-05T02:58:09.099Z,0.98
2022-08-05T02:59:11.173Z,0.16
2022-08-05T03:00:11.285Z,0.41
2022-08-05T03:01:15.537Z,0.14
2022-08-05T03:02:15.675Z,0.14
2022-08-05T03:03:16.822Z,0.14
2022-08-05T03:04:16.939Z,0.14
2022-08-05T03:06:59.574Z,0.14
2022-08-05T03:08:09.774Z,0.52
2022-08-05T03:09:36.647Z,0.47
2022-08-05T03:10:38.213Z,0.47
2022-08-05T03:11:58.473Z,0.68
2022-08-05T03:14:08.418Z,0
2022-08-05T03:15:12.562Z,0
2022-08-05T03:16:15.916Z,0.45
2022-08-05T03:17:16.039Z,0
2022-08-05T03:18:29.924Z,0
2022-08-05T03:19:36.376Z,1.08
2022-08-05T03:20:36.484Z,1.37
2022-08-05T03:21:50.160Z,0.17
2022-08-05T03:22:50.769Z,0.36
2022-08-05T03:23:50.885Z,0.11
2022-08-05T03:24:52.428Z,0.43
2022-08-05T03:26:32.751Z,0.91
2022-08-05T03:28:00.798Z,2.2
2022-08-05T03:29:01.081Z,0.51
2022-08-05T03:30:09.313Z,0.44
2022-08-05T03:32:00.249Z,1.14
2022-08-05T03:33:01.815Z,1.54
2022-08-05T03:34:01.964Z,3.2
2022-08-05T03:35:05.741Z,2.54
2022-08-05T03:36:12.398Z,2.62
2022-08-05T03:37:14.419Z,1.66
2022-08-05T03:38:14.809Z,2.61
2022-08-05T03:39:28.065Z,0.33
2022-08-05T03:40:32.940Z,1
2022-08-05T03:41:47.021Z,0.93
2022-08-05T03:42:53.175Z,1.66
2022-08-05T03:44:12.175Z,1.03
2022-08-05T03:45:23.831Z,0
2022-08-05T03:46:32.733Z,1.12
2022-08-05T03:47:42.058Z,0.44
2022-08-05T03:48:46.885Z,1.19
2022-08-05T03:49:52.652Z,0.11
2022-08-05T03:50:52.777Z,0.11
2022-08-05T03:56:12.327Z,0.53
2022-08-05T03:57:42.988Z,0.32
2022-08-05T03:58:44.889Z,0
2022-08-05T03:59:55.864Z,0
2022-08-05T04:00:56.139Z,0.45
2022-08-05T04:01:59.459Z,0
2022-08-05T04:02:59.613Z,0
2022-08-05T04:04:11.078Z,0
2022-08-05T04:05:11.193Z,0
2022-08-05T04:06:12.455Z,0
2022-08-05T04:07:13.279Z,0
2022-08-05T04:08:36.908Z,0
2022-08-05T04:09:37.137Z,0
2022-08-05T04:10:38.546Z,0
2022-08-05T04:11:52.891Z,0.15
2022-08-05T04:12:54.886Z,0
2022-08-05T04:13:55.010Z,0
2022-08-05T04:14:58.603Z,0
2022-08-05T04:16:05.086Z,0
2022-08-05T04:17:05.811Z,0
2022-08-05T04:18:14.744Z,0
2022-08-05T04:19:24.145Z,0
2022-08-05T04:20:24.288Z,0
2022-08-05T04:22:12.411Z,0
2022-08-05T04:23:16.372Z,0
2022-08-05T04:24:22.904Z,0
2022-08-05T04:26:01.137Z,0.72
2022-08-05T04:27:01.284Z,0.72
2022-08-05T04:28:13.194Z,0.72
2022-08-05T04:29:14.486Z,0.72
2022-08-05T04:30:14.732Z,0
2022-08-05T04:31:16.166Z,0.25
2022-08-05T04:32:36.581Z,0.75
2022-08-05T04:34:35.916Z,0.58
2022-08-05T04:36:50.524Z,0
2022-08-05T04:38:07.096Z,0.31
2022-08-05T04:39:07.495Z,0.62
2022-08-05T04:40:07.990Z,0.7
2022-08-05T04:41:10.288Z,0.78
2022-08-05T04:42:11.619Z,0
2022-08-05T04:43:16.976Z,0
2022-08-05T04:44:30.822Z,0
2022-08-05T04:45:55.800Z,0
2022-08-05T04:46:56.547Z,0
2022-08-05T04:47:57.665Z,0.33
2022-08-05T04:48:58.985Z,0.16
2022-08-05T04:50:11.874Z,0.29
2022-08-05T04:51:12.069Z,0
2022-08-05T04:52:12.212Z,0
2022-08-05T04:53:12.339Z,0
2022-08-05T04:54:12.548Z,0
2022-08-05T04:55:15.533Z,0
2022-08-05T04:56:37.587Z,0
2022-08-05T04:57:37.729Z,0
2022-08-05T04:58:37.852Z,0
2022-08-05T04:59:40.974Z,0
2022-08-05T05:00:41.109Z,0
2022-08-05T05:02:41.647Z,0
2022-08-05T05:03:44.716Z,0
2022-08-05T05:04:51.584Z,0
2022-08-05T05:06:49.415Z,0
2022-08-05T05:08:02.687Z,0
2022-08-05T05:09:05.743Z,0
2022-08-05T05:10:06.752Z,0
2022-08-05T05:11:08.135Z,0
2022-08-05T05:12:08.260Z,0
2022-08-05T05:13:08.502Z,0
2022-08-05T05:14:16.485Z,0
2022-08-05T05:16:07.247Z,0
2022-08-05T05:17:09.730Z,0
2022-08-05T05:18:09.843Z,0
2022-08-05T05:19:36.698Z,0
2022-08-05T05:20:49.800Z,0
2022-08-05T05:21:55.810Z,0
2022-08-05T05:22:57.704Z,0
2022-08-05T05:24:09.381Z,0
2022-08-05T05:25:17.664Z,0
2022-08-05T05:26:17.796Z,0
2022-08-05T05:27:21.398Z,0
2022-08-05T05:28:21.599Z,0
2022-08-05T05:29:22.270Z,0
2022-08-05T05:30:33.719Z,0
2022-08-05T05:32:41.069Z,0
2022-08-05T05:34:02.896Z,0
2022-08-05T05:35:03.302Z,0
2022-08-05T05:36:06.195Z,0
2022-08-05T05:37:06.304Z,0
2022-08-05T05:38:14.164Z,0
2022-08-05T05:39:19.626Z,0
2022-08-05T05:40:19.999Z,0
2022-08-05T05:41:20.451Z,0
2022-08-05T05:42:20.980Z,0
2022-08-05T05:44:00.775Z,0
2022-08-05T05:45:03.267Z,0
2022-08-05T05:46:16.199Z,0.59
2022-08-05T05:48:05.270Z,0.67
2022-08-05T05:49:23.390Z,0.54
2022-08-05T05:50:26.020Z,0
2022-08-05T05:51:28.339Z,0.36
2022-08-05T05:52:40.812Z,0.91
2022-08-05T05:54:00.076Z,0.28
2022-08-05T05:55:13.184Z,0.43
2022-08-05T05:56:13.524Z,0.12
2022-08-05T05:57:19.749Z,0.14
2022-08-05T05:58:32.473Z,0.14
2022-08-05T05:59:40.588Z,0.14
2022-08-05T06:00:46.603Z,0.14
2022-08-05T06:01:58.874Z,0.14
2022-08-05T06:02:58.997Z,0.14
2022-08-05T06:04:04.116Z,0.14
2022-08-05T06:05:17.357Z,0.7
2022-08-05T06:06:17.580Z,0
2022-08-05T06:07:42.367Z,0
2022-08-05T06:08:58.000Z,0.87
2022-08-05T06:10:09.809Z,0
2022-08-05T06:11:13.560Z,0
2022-08-05T06:12:15.675Z,0
2022-08-05T06:13:15.787Z,0
2022-08-05T06:14:17.259Z,0
2022-08-05T06:16:32.657Z,0
2022-08-05T06:17:54.958Z,0
2022-08-05T06:18:55.388Z,0
2022-08-05T06:20:00.002Z,0
2022-08-05T06:21:00.398Z,0
2022-08-05T06:22:00.497Z,0
2022-08-05T06:23:04.298Z,0
2022-08-05T06:24:04.414Z,0
2022-08-05T06:26:20.493Z,0
2022-08-05T06:28:22.103Z,0
2022-08-05T06:30:07.691Z,0.83
2022-08-05T06:31:32.128Z,0.83
2022-08-05T06:32:32.928Z,0.83
2022-08-05T06:34:09.242Z,0.25
2022-08-05T06:36:10.395Z,0.25
2022-08-05T06:37:12.495Z,0.25
2022-08-05T06:38:12.612Z,0.25
2022-08-05T06:39:13.951Z,0
2022-08-05T06:40:21.624Z,0
2022-08-05T06:41:41.414Z,0
2022-08-05T06:42:42.060Z,0
2022-08-05T06:44:00.886Z,0
2022-08-05T06:45:09.618Z,0
2022-08-05T06:46:20.774Z,0
2022-08-05T06:48:59.093Z,0.11
2022-08-05T06:50:05.548Z,1.39
2022-08-05T06:51:28.302Z,0.29
2022-08-05T06:52:40.615Z,0
2022-08-05T06:53:53.904Z,0
2022-08-05T06:54:54.036Z,0
2022-08-05T06:55:54.335Z,0
2022-08-05T06:58:30.246Z,0
2022-08-05T06:59:56.427Z,0.29
2022-08-05T07:00:58.484Z,0
2022-08-05T07:01:59.136Z,0.12
2022-08-05T07:02:59.246Z,0
2022-08-05T07:03:59.492Z,0
2022-08-05T07:04:59.884Z,0
2022-08-05T07:05:59.994Z,0
2022-08-05T07:07:00.119Z,0
2022-08-05T07:08:04.243Z,0
2022-08-05T07:09:05.117Z,0
2022-08-05T07:10:07.591Z,0
2022-08-05T07:11:16.085Z,0
2022-08-05T07:12:16.236Z,0
2022-08-05T07:14:00.149Z,0
2022-08-05T07:15:00.758Z,0
2022-08-05T07:16:04.969Z,0
2022-08-05T07:18:10.843Z,0
2022-08-05T07:20:33.212Z,0
2022-08-05T07:22:02.706Z,0
2022-08-05T07:23:04.767Z,0
2022-08-05T07:24:11.637Z,0.16
2022-08-05T07:25:57.162Z,0.37
2022-08-05T07:26:57.344Z,0
2022-08-05T07:28:12.011Z,0
2022-08-05T07:29:17.263Z,0
2022-08-05T07:30:33.578Z,0
2022-08-05T07:31:55.522Z,0
2022-08-05T07:32:57.594Z,0
2022-08-05T07:34:00.035Z,0
2022-08-05T07:36:19.841Z,0
2022-08-05T07:37:21.800Z,0
2022-08-05T07:38:44.188Z,0
2022-08-05T07:40:33.433Z,0
2022-08-05T07:42:16.393Z,0
2022-08-05T07:43:21.480Z,0
2022-08-05T07:44:21.735Z,0
2022-08-05T07:45:59.003Z,0
2022-08-05T07:47:00.493Z,0
2022-08-05T07:48:01.416Z,0
2022-08-05T07:49:08.079Z,0
2022-08-05T07:50:08.212Z,0
2022-08-05T07:51:41.257Z,0
2022-08-05T07:52:53.753Z,0
2022-08-05T07:53:54.155Z,0
2022-08-05T07:54:54.272Z,0
2022-08-05T07:57:15.156Z,0
2022-08-05T07:58:59.566Z,0
2022-08-05T07:59:59.795Z,0
2022-08-05T08:01:00.180Z,0
2022-08-05T08:02:18.229Z,0.43
2022-08-05T08:03:21.739Z,0
2022-08-05T08:04:38.413Z,0.33
2022-08-05T08:05:45.918Z,0
2022-08-05T08:06:51.363Z,0
2022-08-05T08:08:00.849Z,0
2022-08-05T08:09:00.962Z,0
2022-08-05T08:10:01.599Z,0
2022-08-05T08:11:01.744Z,0
2022-08-05T08:12:48.980Z,0
2022-08-05T08:14:01.407Z,0.37
2022-08-05T08:15:04.677Z,0.62
2022-08-05T08:16:53.696Z,0
2022-08-05T08:17:53.856Z,0.12
2022-08-05T08:18:54.919Z,0
2022-08-05T08:21:03.978Z,0
2022-08-05T08:22:16.645Z,0.14
2022-08-05T08:24:07.606Z,0.14
2022-08-05T08:25:59.642Z,1.33
2022-08-05T08:27:07.482Z,0.54
2022-08-05T08:28:49.671Z,0.17
2022-08-05T08:30:39.302Z,1
2022-08-05T08:31:48.762Z,1.54
2022-08-05T08:32:51.246Z,1.57
2022-08-05T08:33:53.371Z,0.95
2022-08-05T08:34:57.317Z,0
2022-08-05T08:36:55.801Z,0
2022-08-05T08:37:59.861Z,0
2022-08-05T08:39:01.942Z,0
2022-08-05T08:40:04.601Z,0
2022-08-05T08:41:04.736Z,0
2022-08-05T08:42:50.858Z,0
2022-08-05T08:45:30.453Z,0
2022-08-05T08:46:31.071Z,0
2022-08-05T08:49:03.123Z,0
2022-08-05T08:52:02.562Z,0
2022-08-05T08:53:12.653Z,0.86
2022-08-05T08:54:14.008Z,0.38
2022-08-05T08:56:05.922Z,0.87
2022-08-05T08:57:13.549Z,0.75
2022-08-05T08:58:13.672Z,0.77
2022-08-05T08:59:21.033Z,0.95
2022-08-05T09:00:21.857Z,0.98
2022-08-05T09:01:22.401Z,0.98
2022-08-05T09:02:27.391Z,1.2
2022-08-05T09:03:45.754Z,2.03
2022-08-05T09:05:18.558Z,1.79
2022-08-05T09:06:41.203Z,0.87
2022-08-05T09:07:59.268Z,0.68
2022-08-05T09:08:59.423Z,1.75
2022-08-05T09:09:59.537Z,1.58
2022-08-05T09:11:00.218Z,0.25
2022-08-05T09:12:26.989Z,0.33
2022-08-05T09:14:54.881Z,0.33
2022-08-05T09:15:58.573Z,1.79
2022-08-05T09:16:58.751Z,0.52
2022-08-05T09:17:59.913Z,0
2022-08-05T09:19:00.513Z,0
2022-08-05T09:20:05.644Z,0.12
2022-08-05T09:22:18.300Z,0.12
2022-08-05T09:23:43.916Z,1.79
2022-08-05T09:24:44.689Z,1.41
2022-08-05T09:26:06.730Z,0.33
2022-08-05T09:27:09.514Z,0.52
2022-08-05T09:28:13.127Z,0
2022-08-05T09:29:19.315Z,0.45
2022-08-05T09:30:23.902Z,1.04
2022-08-05T09:32:47.037Z,1.29
2022-08-05T09:33:51.005Z,0.7
2022-08-05T09:34:51.113Z,1.29
2022-08-05T09:35:52.966Z,0.7
2022-08-05T09:37:00.123Z,0.11
2022-08-05T09:38:29.731Z,0.11
2022-08-05T09:39:57.041Z,1.5
2022-08-05T09:40:57.196Z,1.58
2022-08-05T09:41:58.688Z,1.12
2022-08-05T09:42:58.810Z,1.08
2022-08-05T09:43:59.220Z,0.52
2022-08-05T09:46:08.914Z,1.25
2022-08-05T09:47:16.019Z,0.7
2022-08-05T09:48:21.120Z,0.12
2022-08-05T09:50:03.330Z,0
2022-08-05T09:51:16.020Z,2.31
2022-08-05T09:52:16.332Z,2.79
2022-08-05T09:53:59.077Z,2.7
2022-08-05T09:55:59.431Z,0.1
2022-08-05T09:57:23.794Z,0.9
2022-08-05T09:58:23.927Z,2.04
2022-08-05T09:59:28.050Z,0.9
2022-08-05T10:00:31.692Z,0
2022-08-05T10:01:33.110Z,1.62
2022-08-05T10:02:33.450Z,2.41
2022-08-05T10:04:00.468Z,0.21
2022-08-05T10:05:00.669Z,1.95
2022-08-05T10:06:16.071Z,0.85
2022-08-05T10:08:38.093Z,1.18
2022-08-05T10:09:45.714Z,0
2022-08-05T10:10:54.754Z,0.13
2022-08-05T10:11:58.679Z,0.95
2022-08-05T10:12:58.789Z,0.83
2022-08-05T10:13:59.448Z,2.16
2022-08-05T10:14:59.832Z,3.66
2022-08-05T10:15:59.951Z,2.13
2022-08-05T10:17:00.188Z,1.2
2022-08-05T10:18:01.711Z,0.34
2022-08-05T10:19:10.274Z,0
2022-08-05T10:20:12.162Z,0.16
2022-08-05T10:21:16.687Z,0.68
2022-08-05T10:22:39.203Z,1.52
2022-08-05T10:24:03.200Z,0
2022-08-05T10:25:08.398Z,0.7
2022-08-05T10:26:15.303Z,1.75
2022-08-05T10:27:16.955Z,0.8
2022-08-05T10:28:30.807Z,0
2022-08-05T10:33:02.877Z,1.45
2022-08-05T10:34:03.672Z,1.42
2022-08-05T10:35:07.077Z,0.57
2022-08-05T10:36:08.559Z,0.65
2022-08-05T10:37:09.081Z,0.27
2022-08-05T10:38:12.691Z,0
2022-08-05T10:40:16.657Z,0
2022-08-05T10:41:23.874Z,1.27
2022-08-05T10:42:34.783Z,1.58
2022-08-05T10:43:38.604Z,0
2022-08-05T10:44:42.091Z,0.45
2022-08-05T10:45:43.103Z,1.62
2022-08-05T10:46:43.523Z,0.9
2022-08-05T10:48:35.228Z,0.8
2022-08-05T10:50:36.783Z,1.79
2022-08-05T10:52:02.433Z,1.83
2022-08-05T10:53:04.231Z,0.18
2022-08-05T10:54:36.344Z,0.6
2022-08-05T10:56:26.095Z,0.25
2022-08-05T10:57:34.445Z,2.33
2022-08-05T10:58:50.885Z,0.73
2022-08-05T11:00:19.951Z,2.37
2022-08-05T11:02:05.481Z,1.02
2022-08-05T11:03:27.389Z,1.08
2022-08-05T11:04:31.853Z,3.54
2022-08-05T11:05:36.879Z,3.2
2022-08-05T11:06:37.915Z,2.08
2022-08-05T11:08:36.946Z,1.24
2022-08-05T11:09:47.512Z,0.2
2022-08-05T11:11:07.779Z,0.16
2022-08-05T11:12:12.121Z,0.2
2022-08-05T11:13:17.296Z,0
2022-08-05T11:14:17.415Z,1.12
2022-08-05T11:15:21.622Z,0.29
2022-08-05T11:16:21.821Z,0
2022-08-05T11:18:05.966Z,1.02
2022-08-05T11:20:18.667Z,1.5
2022-08-05T11:21:22.999Z,0.43
2022-08-05T11:22:23.106Z,0.37
2022-08-05T11:24:02.400Z,0.96
2022-08-05T11:26:09.942Z,1.66
2022-08-05T11:27:10.229Z,0.86
2022-08-05T11:28:17.530Z,0.25
2022-08-05T11:29:18.255Z,0.25
2022-08-05T11:30:18.385Z,0.25
2022-08-05T11:32:01.017Z,0.33
2022-08-05T11:33:04.807Z,0.33
2022-08-05T11:34:08.361Z,0.33
2022-08-05T11:35:15.655Z,0.33
2022-08-05T11:36:43.022Z,0.12
2022-08-05T11:38:50.915Z,1.41
2022-08-05T11:40:04.698Z,0.79
2022-08-05T11:42:04.828Z,0.83
2022-08-05T11:43:06.119Z,0.89
2022-08-05T11:44:08.807Z,0.34
2022-08-05T11:46:32.051Z,0.45
2022-08-05T11:47:55.109Z,0.3
2022-08-05T11:48:55.347Z,1.12
2022-08-05T11:49:56.012Z,1.37
2022-08-05T11:50:56.839Z,0.78
2022-08-05T11:51:58.016Z,0.44
2022-08-05T11:52:59.812Z,0.7
2022-08-05T11:54:02.484Z,0.1
2022-08-05T11:55:10.779Z,0.7
2022-08-05T11:56:13.654Z,1.04
2022-08-05T11:57:27.360Z,0.64
2022-08-05T11:58:28.225Z,0.12
2022-08-05T11:59:49.413Z,0.6
2022-08-05T12:00:53.968Z,0.18
2022-08-05T12:01:54.077Z,0.29
2022-08-05T12:02:56.894Z,0.37
2022-08-05T12:03:57.165Z,1.12
2022-08-05T12:05:00.650Z,0
2022-08-05T12:06:01.075Z,1
2022-08-05T12:07:02.062Z,0.87
2022-08-05T12:08:18.487Z,0.48
2022-08-05T12:09:20.330Z,0.91
2022-08-05T12:10:20.453Z,0.48
2022-08-05T12:11:20.853Z,0.18
2022-08-05T12:12:25.893Z,0.2
2022-08-05T12:13:50.159Z,0
2022-08-05T12:14:52.189Z,0.5
2022-08-05T12:15:56.250Z,0
2022-08-05T12:16:56.927Z,0
2022-08-05T12:18:12.214Z,0
2022-08-05T12:20:33.874Z,0.33
2022-08-05T12:21:39.579Z,0.33
2022-08-05T12:22:39.842Z,0.33
2022-08-05T12:23:43.502Z,0
2022-08-05T12:24:50.710Z,0
2022-08-05T12:25:51.154Z,0
2022-08-05T12:26:51.274Z,0.29
2022-08-05T12:27:53.714Z,0.75
2022-08-05T12:28:54.016Z,2.37
2022-08-05T12:29:57.105Z,1.03
2022-08-05T12:30:57.247Z,0
2022-08-05T12:31:57.381Z,0.16
2022-08-05T12:33:36.839Z,0.87
2022-08-05T12:34:39.731Z,0.41
2022-08-05T12:35:43.233Z,0
2022-08-05T12:36:43.712Z,0.37
2022-08-05T12:37:43.832Z,0.17
2022-08-05T12:38:43.947Z,0.77
2022-08-05T12:39:51.986Z,0.87
2022-08-05T12:40:54.079Z,0.87
2022-08-05T12:41:58.329Z,2.6
2022-08-05T12:42:58.608Z,2.58
2022-08-05T12:43:58.729Z,2.58
2022-08-05T12:44:58.840Z,0.41
2022-08-05T12:45:59.130Z,0.54
2022-08-05T12:46:59.276Z,0.58
2022-08-05T12:48:33.175Z,0.47
2022-08-05T12:50:07.424Z,1.31
2022-08-05T12:52:24.069Z,1.79
2022-08-05T12:53:38.891Z,0.79
2022-08-05T12:54:39.643Z,1.32
2022-08-05T12:55:43.243Z,2.33
2022-08-05T12:56:45.365Z,0.75
2022-08-05T12:58:58.582Z,0.32
2022-08-05T13:02:09.832Z,1.37
2022-08-05T13:03:15.154Z,0.14
2022-08-05T13:04:21.503Z,1.08
2022-08-05T13:05:37.772Z,0.1
2022-08-05T13:06:52.016Z,0.83
2022-08-05T13:08:01.815Z,0.78
2022-08-05T13:09:02.212Z,2.95
2022-08-05T13:10:02.612Z,3.16
2022-08-05T13:11:04.611Z,0.4
2022-08-05T13:12:16.179Z,0.54
2022-08-05T13:14:07.890Z,0.44
2022-08-05T13:15:35.719Z,0.63
2022-08-05T13:16:41.633Z,0.4
2022-08-05T13:17:42.923Z,1.75
2022-08-05T13:18:43.473Z,2.41
2022-08-05T13:19:53.163Z,1
2022-08-05T13:20:53.291Z,2.2
2022-08-05T13:21:56.948Z,1.33
2022-08-05T13:22:59.250Z,0
2022-08-05T13:23:59.365Z,0.54
2022-08-05T13:25:22.085Z,1.25
2022-08-05T13:26:51.357Z,1.25
2022-08-05T13:27:51.467Z,1.33
2022-08-05T13:28:53.536Z,2.45
2022-08-05T13:30:37.019Z,0.66
2022-08-05T13:32:06.301Z,1.12
2022-08-05T13:33:06.466Z,3
2022-08-05T13:34:26.515Z,2.95
2022-08-05T13:35:52.036Z,2.58
2022-08-05T13:36:52.185Z,1.11
2022-08-05T13:37:55.992Z,1.64
2022-08-05T13:38:57.135Z,0.13
2022-08-05T13:40:52.314Z,0
2022-08-05T13:41:53.283Z,1.5
2022-08-05T13:42:55.932Z,0.27
2022-08-05T13:43:56.040Z,0.83
2022-08-05T13:44:59.100Z,1.4
2022-08-05T13:45:59.206Z,0.12
2022-08-05T13:47:09.390Z,0.31
2022-08-05T13:49:01.282Z,0.29
2022-08-05T13:50:13.587Z,2.54
2022-08-05T13:51:16.308Z,1.58
2022-08-05T13:52:16.429Z,1.16
2022-08-05T13:53:16.542Z,0.32
2022-08-05T13:54:24.854Z,0.62
2022-08-05T13:56:00.338Z,1.39
2022-08-05T13:57:02.329Z,2.04
2022-08-05T13:58:02.455Z,1.31
2022-08-05T13:59:26.907Z,1.16
2022-08-05T14:00:29.264Z,2.2
2022-08-05T14:02:00.234Z,0.68
2022-08-05T14:03:01.728Z,0.79
2022-08-05T14:04:01.876Z,0.23
2022-08-05T14:05:01.986Z,0
2022-08-05T14:06:27.301Z,0.16
2022-08-05T14:08:20.668Z,2.12
2022-08-05T14:09:29.958Z,1.45
2022-08-05T14:10:31.411Z,1.66
2022-08-05T14:11:31.549Z,0.13
2022-08-05T14:12:33.114Z,3.2
2022-08-05T14:13:34.641Z,1.61
2022-08-05T14:14:34.750Z,2.04
2022-08-05T14:16:11.837Z,3.37
2022-08-05T14:17:18.013Z,0.29
2022-08-05T14:18:24.288Z,3.25
2022-08-05T14:19:26.369Z,1.79
2022-08-05T14:20:27.763Z,1.41
2022-08-05T14:22:12.421Z,1.11
2022-08-05T14:23:24.064Z,1.01
2022-08-05T14:24:26.128Z,0
2022-08-05T14:25:30.463Z,0.66
2022-08-05T14:27:08.704Z,0.1
2022-08-05T14:28:28.244Z,0.41
2022-08-05T14:29:31.535Z,0.16
2022-08-05T14:30:31.647Z,0.16
2022-08-05T14:32:21.163Z,0.7
2022-08-05T14:34:00.977Z,0.7
2022-08-05T14:35:01.599Z,0.7
2022-08-05T14:36:02.224Z,0.7
2022-08-05T14:37:02.801Z,0.7
2022-08-05T14:38:04.556Z,0.7
2022-08-05T14:39:04.923Z,0.7
2022-08-05T14:40:05.272Z,1.62
2022-08-05T14:41:07.936Z,1.33
2022-08-05T14:42:29.595Z,0.29
2022-08-05T14:44:21.874Z,1.18
2022-08-05T14:45:23.199Z,2.61
2022-08-05T14:46:29.885Z,1.53
2022-08-05T14:48:09.040Z,0
2022-08-05T14:50:17.641Z,0.45
2022-08-05T14:51:20.174Z,0.93
2022-08-05T14:52:57.889Z,0.98
2022-08-05T14:54:33.893Z,1
2022-08-05T14:55:40.388Z,1.45
2022-08-05T14:56:47.242Z,1.03
2022-08-05T14:57:56.793Z,1.43
2022-08-05T14:58:56.936Z,0.53
2022-08-05T14:59:58.901Z,0.2
2022-08-05T15:01:01.756Z,1.87
2022-08-05T15:02:03.234Z,1.06
2022-08-05T15:03:09.665Z,0.88
2022-08-05T15:04:11.755Z,2.16
2022-08-05T15:05:13.936Z,0.32
2022-08-05T15:06:16.095Z,1.02
2022-08-05T15:08:38.202Z,0
2022-08-05T15:10:03.918Z,0
2022-08-05T15:11:04.042Z,0
2022-08-05T15:12:04.227Z,0.87
2022-08-05T15:13:10.484Z,0.73
2022-08-05T15:14:43.210Z,0.11
2022-08-05T15:15:56.629Z,0.11
2022-08-05T15:16:56.753Z,0
2022-08-05T15:17:56.870Z,0.41
2022-08-05T15:19:00.978Z,2.04
2022-08-05T15:20:01.352Z,2.04
2022-08-05T15:21:08.357Z,1.13
2022-08-05T15:22:09.096Z,0.29
2022-08-05T15:23:09.207Z,1.41
2022-08-05T15:24:09.497Z,0.24
2022-08-05T15:25:14.980Z,0.43
2022-08-05T15:26:15.357Z,0.34
2022-08-05T15:27:15.460Z,0
2022-08-05T15:28:16.343Z,0
2022-08-05T15:29:16.453Z,0
2022-08-05T15:30:16.729Z,0
2022-08-05T15:31:16.841Z,0
2022-08-05T15:32:17.107Z,0
2022-08-05T15:34:33.749Z,0
2022-08-05T15:35:45.809Z,0.5
2022-08-05T15:36:45.952Z,0.11
2022-08-05T15:38:42.246Z,2.45
2022-08-05T15:41:24.259Z,1.2
2022-08-05T15:43:13.004Z,3.85
2022-08-05T15:44:20.537Z,2.39
2022-08-05T15:45:39.195Z,2.16
2022-08-05T15:46:39.408Z,1.85
2022-08-05T15:47:39.797Z,2.11
2022-08-05T15:49:09.990Z,1.83
2022-08-05T15:50:16.184Z,3.12
2022-08-05T15:51:16.593Z,0.48
2022-08-05T15:52:56.451Z,1.25
2022-08-05T15:54:01.015Z,1.29
2022-08-05T15:55:01.646Z,1.45
2022-08-05T15:56:14.494Z,1.05
2022-08-05T15:57:18.430Z,1.01
2022-08-05T15:58:19.130Z,1.11
2022-08-05T15:59:23.084Z,2
2022-08-05T16:01:04.602Z,0.84
2022-08-05T16:02:28.879Z,1.41
2022-08-05T16:03:34.057Z,0.27
2022-08-05T16:04:34.184Z,1.7
2022-08-05T16:05:34.337Z,0.72
2022-08-05T16:06:39.839Z,0.78
2022-08-05T16:07:49.293Z,0.88
2022-08-05T16:08:55.607Z,1.95
2022-08-05T16:09:58.094Z,0.89
2022-08-05T16:10:58.836Z,0.71
2022-08-05T16:11:59.506Z,0.95
2022-08-05T16:12:59.614Z,2.2
2022-08-05T16:14:00.397Z,2.72
2022-08-05T16:15:00.858Z,1.01
2022-08-05T16:16:00.954Z,0
2022-08-05T16:17:01.062Z,1.68
2022-08-05T16:18:09.387Z,2.82
2022-08-05T16:19:09.992Z,2.56
2022-08-05T16:20:12.555Z,1.87
2022-08-05T16:21:13.840Z,1.39
2022-08-05T16:22:15.784Z,1.45
2022-08-05T16:23:15.900Z,1.12
2022-08-05T16:24:52.223Z,1.16
2022-08-05T16:25:56.071Z,1.79
2022-08-05T16:26:56.185Z,1.91
2022-08-05T16:28:06.607Z,1.29
2022-08-05T16:29:09.772Z,1.18
2022-08-05T16:30:29.432Z,0.89
2022-08-05T16:31:57.934Z,0.29
2022-08-05T16:32:58.161Z,0.93
2022-08-05T16:34:01.405Z,0.79
2022-08-05T16:35:01.515Z,1.45
2022-08-05T16:36:02.818Z,1.31
2022-08-05T16:38:27.952Z,1.6
2022-08-05T16:40:28.990Z,1.75
2022-08-05T16:42:28.821Z,1.16
2022-08-05T16:43:30.656Z,2.1
2022-08-05T16:44:30.822Z,0.34
2022-08-05T16:46:24.715Z,1.29
2022-08-05T16:47:57.397Z,0.23
2022-08-05T16:48:59.784Z,3.12
2022-08-05T16:50:00.709Z,1.29
2022-08-05T16:51:00.824Z,1.14
2022-08-05T16:52:04.769Z,0.57
2022-08-05T16:54:02.318Z,1.66
2022-08-05T16:55:04.531Z,1
2022-08-05T16:56:04.658Z,0.58
2022-08-05T16:57:22.579Z,0
2022-08-05T16:58:53.572Z,0.14